Time;durP1;ratioP1;P1;durP2;ratioP2;P2;SDS_P1;SDS_P2;PMS_P1;PMS_P2;Temp;Humidity;BMP_temperature;BMP_pressure;BME280_temperature;BME280_humidity;BME280_pressure;Samples;Min_cycle;Max_cycle;Signal;HPM_P1;HPM_P2
2022/08/06 00:01:07;;;;;;;;;;;14.10;99.90;;;;;;5117895;27;19918;-58
2022/08/06 00:03:49;;;;;;;;;;;14.10;99.90;;;;;;5125289;27;19925;-60
2022/08/06 00:06:30;;;;;;;;;;;13.90;99.90;;;;;;5125018;27;19911;-58
2022/08/06 00:09:10;;;;;;;;;;;13.90;99.90;;;;;;5125822;27;20159;-58
2022/08/06 00:11:51;;;;;;;;;;;13.80;99.90;;;;;;5125140;27;19912;-58
2022/08/06 00:14:31;;;;;;;;;;;13.80;99.90;;;;;;5125464;27;19918;-58
2022/08/06 00:17:12;;;;;;;;;;;13.80;99.90;;;;;;5124092;27;20331;-59
2022/08/06 00:19:52;;;;;;;;;;;13.80;99.90;;;;;;5125450;27;19925;-58
2022/08/06 00:22:32;;;;;;;;;;;13.90;99.90;;;;;;5125587;27;19912;-58
2022/08/06 00:25:12;;;;;;;;;;;13.90;99.90;;;;;;5125136;27;19918;-58
2022/08/06 00:27:52;;;;;;;;;;;14.00;99.90;;;;;;5125084;27;19915;-60
2022/08/06 00:30:32;;;;;;;;;;;14.10;99.90;;;;;;5101890;27;19919;-58
2022/08/06 00:33:11;;;;;;;;;;;14.00;99.90;;;;;;5105273;27;20404;-58
2022/08/06 00:35:51;;;;;;;;;;;13.80;99.90;;;;;;5124313;27;19922;-58
2022/08/06 00:38:31;;;;;;;;;;;13.80;99.90;;;;;;5124766;27;19916;-58
2022/08/06 00:41:11;;;;;;;;;;;13.90;99.90;;;;;;5117210;27;19919;-58
2022/08/06 00:43:51;;;;;;;;;;;13.80;99.90;;;;;;5125160;27;19916;-60
2022/08/06 00:46:31;;;;;;;;;;;13.90;99.90;;;;;;5124260;27;19918;-58
2022/08/06 00:49:11;;;;;;;;;;;14.00;99.90;;;;;;5104779;27;19926;-58
2022/08/06 00:51:50;;;;;;;;;;;14.10;99.90;;;;;;5146042;27;19911;-58
2022/08/06 00:54:30;;;;;;;;;;;14.10;99.90;;;;;;5083994;28;19913;-58
2022/08/06 00:57:10;;;;;;;;;;;14.10;99.90;;;;;;5124382;27;20269;-58
2022/08/06 00:59:50;;;;;;;;;;;14.00;99.90;;;;;;5124679;27;19941;-58
2022/08/06 01:02:29;;;;;;;;;;;14.10;99.90;;;;;;5125247;27;19922;-58
2022/08/06 01:05:09;;;;;;;;;;;14.10;99.90;;;;;;5124975;27;19915;-58
2022/08/06 01:07:49;;;;;;;;;;;14.10;99.90;;;;;;5123462;27;19915;-58
2022/08/06 01:10:29;;;;;;;;;;;14.10;99.90;;;;;;5122435;27;19918;-58
2022/08/06 01:13:09;;;;;;;;;;;14.10;99.90;;;;;;5099591;27;19953;-58
2022/08/06 01:15:52;;;;;;;;;;;14.10;99.90;;;;;;5091593;27;19934;-58
2022/08/06 01:18:36;;;;;;;;;;;14.00;99.90;;;;;;5123194;27;19918;-58
2022/08/06 01:21:24;;;;;;;;;;;14.00;99.90;;;;;;5114416;27;20321;-58
2022/08/06 01:24:11;;;;;;;;;;;13.90;99.90;;;;;;5123665;27;20299;-58
2022/08/06 01:26:54;;;;;;;;;;;13.90;99.90;;;;;;5142800;27;20295;-58
2022/08/06 01:29:37;;;;;;;;;;;14.00;99.90;;;;;;5123246;27;20373;-58
2022/08/06 01:32:20;;;;;;;;;;;14.00;99.90;;;;;;5102446;27;20312;-58
2022/08/06 01:35:02;;;;;;;;;;;14.20;99.90;;;;;;5123001;27;20330;-58
2022/08/06 01:37:46;;;;;;;;;;;14.20;99.90;;;;;;5122332;27;19911;-58
2022/08/06 01:40:30;;;;;;;;;;;14.30;99.90;;;;;;5120899;27;19918;-58
2022/08/06 01:43:12;;;;;;;;;;;14.30;99.90;;;;;;5123689;27;19912;-58
2022/08/06 01:45:53;;;;;;;;;;;14.40;99.90;;;;;;5082275;28;19919;-58
2022/08/06 01:48:37;;;;;;;;;;;14.30;99.90;;;;;;5123420;27;19922;-58
2022/08/06 01:51:18;;;;;;;;;;;14.30;99.90;;;;;;5123446;27;19912;-58
2022/08/06 01:53:58;;;;;;;;;;;14.20;99.90;;;;;;5103240;27;19918;-58
2022/08/06 01:56:40;;;;;;;;;;;14.40;99.90;;;;;;5122268;27;19912;-58
2022/08/06 01:59:22;;;;;;;;;;;14.30;99.90;;;;;;5124166;27;19912;-58
2022/08/06 02:02:04;;;;;;;;;;;14.30;99.90;;;;;;5110646;27;20311;-58
2022/08/06 02:04:46;;;;;;;;;;;14.20;99.90;;;;;;5122061;27;20278;-58
2022/08/06 02:07:34;;;;;;;;;;;14.10;99.90;;;;;;5118220;27;19916;-58
2022/08/06 02:10:15;;;;;;;;;;;14.00;99.90;;;;;;5124256;27;19919;-58
2022/08/06 02:12:55;;;;;;;;;;;14.00;99.90;;;;;;5124677;27;20372;-58
2022/08/06 02:15:47;;;;;;;;;;;14.00;99.90;;;;;;5112072;27;19912;-58
2022/08/06 02:18:27;;;;;;;;;;;14.00;99.90;;;;;;5124964;27;19926;-60
2022/08/06 02:21:11;;;;;;;;;;;14.00;99.90;;;;;;5125492;27;19919;-58
2022/08/06 02:23:52;;;;;;;;;;;13.90;99.90;;;;;;5084766;28;19950;-58
2022/08/06 02:26:34;;;;;;;;;;;13.90;99.90;;;;;;5124552;27;19911;-58
2022/08/06 02:29:15;;;;;;;;;;;14.00;99.90;;;;;;5124932;27;19934;-58
2022/08/06 02:31:56;;;;;;;;;;;13.90;99.90;;;;;;5125338;27;19918;-58
2022/08/06 02:34:36;;;;;;;;;;;13.80;99.90;;;;;;5125644;27;19916;-59
2022/08/06 02:37:18;;;;;;;;;;;13.80;99.90;;;;;;5124068;27;20330;-58
2022/08/06 02:40:01;;;;;;;;;;;13.80;99.90;;;;;;5104860;27;19912;-59
2022/08/06 02:42:44;;;;;;;;;;;13.80;99.90;;;;;;5125802;27;19912;-58
2022/08/06 02:45:29;;;;;;;;;;;13.80;99.90;;;;;;5133389;27;19926;-58
2022/08/06 02:48:13;;;;;;;;;;;13.80;99.90;;;;;;5123580;27;19934;-58
2022/08/06 02:50:54;;;;;;;;;;;13.80;99.90;;;;;;5125484;27;19922;-58
2022/08/06 02:53:40;;;;;;;;;;;13.80;99.90;;;;;;5124104;27;19912;-58
2022/08/06 02:56:20;;;;;;;;;;;13.90;99.90;;;;;;5152336;27;20377;-58
2022/08/06 02:59:00;;;;;;;;;;;13.90;99.90;;;;;;5123710;27;19918;-59
2022/08/06 03:01:44;;;;;;;;;;;14.00;99.90;;;;;;5122925;27;19922;-58
2022/08/06 03:04:26;;;;;;;;;;;13.90;99.90;;;;;;5083422;28;19912;-58
2022/08/06 03:07:08;;;;;;;;;;;13.80;99.90;;;;;;5121465;27;19911;-58
2022/08/06 03:09:49;;;;;;;;;;;13.90;99.90;;;;;;5095565;27;19919;-58
2022/08/06 03:12:31;;;;;;;;;;;13.90;99.90;;;;;;5114078;27;19919;-58
2022/08/06 03:15:11;;;;;;;;;;;13.80;99.90;;;;;;5121852;27;20364;-58
2022/08/06 03:17:55;;;;;;;;;;;13.80;99.90;;;;;;5121900;27;19912;-58
2022/08/06 03:20:35;;;;;;;;;;;13.90;99.90;;;;;;5122541;27;20399;-58
2022/08/06 03:23:16;;;;;;;;;;;13.90;99.90;;;;;;5124269;27;19916;-58
2022/08/06 03:25:57;;;;;;;;;;;13.80;99.90;;;;;;5123790;27;19915;-58
2022/08/06 03:28:37;;;;;;;;;;;13.90;99.90;;;;;;5125169;27;19912;-58
2022/08/06 03:31:17;;;;;;;;;;;13.90;99.90;;;;;;5116840;27;19945;-58
2022/08/06 03:33:57;;;;;;;;;;;14.00;99.90;;;;;;5124906;27;20284;-58
2022/08/06 03:36:38;;;;;;;;;;;14.00;99.90;;;;;;5123506;27;19912;-58
2022/08/06 03:39:18;;;;;;;;;;;14.10;99.90;;;;;;5124777;27;19915;-58
2022/08/06 03:41:59;;;;;;;;;;;14.20;99.90;;;;;;5125518;27;20368;-58
2022/08/06 03:44:39;;;;;;;;;;;14.20;99.90;;;;;;5125320;27;19916;-58
2022/08/06 03:47:21;;;;;;;;;;;14.30;99.90;;;;;;5124489;27;19918;-58
2022/08/06 03:50:05;;;;;;;;;;;14.20;99.90;;;;;;5126249;27;20200;-58
2022/08/06 03:52:51;;;;;;;;;;;14.20;99.90;;;;;;5125140;27;20107;-58
2022/08/06 03:55:33;;;;;;;;;;;14.30;99.90;;;;;;5104426;27;19912;-58
2022/08/06 03:58:13;;;;;;;;;;;14.30;99.90;;;;;;5125114;27;19953;-58
2022/08/06 04:00:57;;;;;;;;;;;14.30;99.90;;;;;;5124708;27;20262;-58
2022/08/06 04:03:37;;;;;;;;;;;14.40;99.90;;;;;;5125686;27;20315;-58
2022/08/06 04:06:18;;;;;;;;;;;14.40;99.90;;;;;;5145591;27;19917;-58
2022/08/06 04:08:59;;;;;;;;;;;14.50;99.90;;;;;;5125655;27;19912;-58
2022/08/06 04:11:40;;;;;;;;;;;14.40;99.90;;;;;;5146772;27;19912;-58
2022/08/06 04:14:21;;;;;;;;;;;14.50;99.90;;;;;;5146240;27;19937;-58
2022/08/06 04:17:03;;;;;;;;;;;14.50;99.90;;;;;;5104446;27;19912;-58
2022/08/06 04:19:45;;;;;;;;;;;14.60;99.90;;;;;;5145694;27;19915;-58
2022/08/06 04:22:26;;;;;;;;;;;14.60;99.90;;;;;;5105153;27;19912;-58
2022/08/06 04:25:06;;;;;;;;;;;14.60;99.90;;;;;;5126559;27;19915;-58
2022/08/06 04:27:47;;;;;;;;;;;14.60;99.90;;;;;;5125183;27;19912;-58
2022/08/06 04:30:32;;;;;;;;;;;14.60;99.90;;;;;;5102510;27;19965;-58
2022/08/06 04:33:14;;;;;;;;;;;14.70;99.90;;;;;;5126289;27;20391;-58
2022/08/06 04:35:55;;;;;;;;;;;14.70;99.90;;;;;;5124930;27;19915;-58
2022/08/06 04:38:36;;;;;;;;;;;14.70;99.90;;;;;;5125530;27;20372;-58
2022/08/06 04:41:16;;;;;;;;;;;14.60;99.90;;;;;;5096327;27;19913;-58
2022/08/06 04:43:55;;;;;;;;;;;14.70;99.90;;;;;;5126059;27;20164;-58
2022/08/06 04:46:35;;;;;;;;;;;14.70;99.90;;;;;;5120745;27;19922;-58
2022/08/06 04:49:15;;;;;;;;;;;14.70;99.90;;;;;;5125248;27;19912;-58
2022/08/06 04:51:55;;;;;;;;;;;14.70;99.90;;;;;;5146241;27;19911;-58
2022/08/06 04:54:35;;;;;;;;;;;14.80;99.90;;;;;;5105620;27;19912;-58
2022/08/06 04:57:14;;;;;;;;;;;14.80;99.90;;;;;;5104246;27;19916;-58
2022/08/06 04:59:54;;;;;;;;;;;14.70;99.90;;;;;;5105577;27;19919;-58
2022/08/06 05:02:34;;;;;;;;;;;14.60;99.90;;;;;;5125125;27;19920;-58
2022/08/06 05:05:15;;;;;;;;;;;14.60;99.90;;;;;;5105076;27;20430;-58
2022/08/06 05:07:56;;;;;;;;;;;14.40;99.90;;;;;;5124840;27;20129;-59
2022/08/06 05:10:40;;;;;;;;;;;14.20;99.90;;;;;;5121812;27;20366;-58
2022/08/06 05:13:21;;;;;;;;;;;14.20;99.90;;;;;;5125995;27;20353;-58
2022/08/06 05:16:03;;;;;;;;;;;14.20;99.90;;;;;;5104397;27;19945;-58
2022/08/06 05:18:44;;;;;;;;;;;14.10;99.90;;;;;;5126306;27;19911;-58
2022/08/06 05:21:28;;;;;;;;;;;14.10;99.90;;;;;;5095967;27;19930;-58
2022/08/06 05:24:09;;;;;;;;;;;14.20;99.90;;;;;;5126076;27;19934;-58
2022/08/06 05:26:49;;;;;;;;;;;14.30;99.90;;;;;;5125118;27;20365;-58
2022/08/06 05:29:28;;;;;;;;;;;14.30;99.90;;;;;;5105095;27;19912;-58
2022/08/06 05:32:08;;;;;;;;;;;14.30;99.90;;;;;;5125642;27;19911;-58
2022/08/06 05:34:48;;;;;;;;;;;14.20;99.90;;;;;;5084946;28;19921;-58
2022/08/06 05:37:28;;;;;;;;;;;14.20;99.90;;;;;;5124770;27;19920;-58
2022/08/06 05:40:09;;;;;;;;;;;14.20;99.90;;;;;;5126082;27;20300;-58
2022/08/06 05:42:49;;;;;;;;;;;14.20;99.90;;;;;;5125359;27;19916;-58
2022/08/06 05:45:29;;;;;;;;;;;14.40;99.90;;;;;;5104900;27;19919;-58
2022/08/06 05:48:12;;;;;;;;;;;14.30;99.90;;;;;;5125322;27;19912;-58
2022/08/06 05:50:55;;;;;;;;;;;14.40;99.90;;;;;;5125719;27;20132;-59
2022/08/06 05:53:41;;;;;;;;;;;14.40;99.90;;;;;;5119807;27;19912;-58
2022/08/06 05:56:22;;;;;;;;;;;14.40;99.90;;;;;;5124550;27;20312;-58
2022/08/06 05:59:05;;;;;;;;;;;14.60;99.90;;;;;;5125169;27;19912;-58
2022/08/06 06:01:46;;;;;;;;;;;14.80;99.90;;;;;;5111643;27;19927;-58
2022/08/06 06:04:26;;;;;;;;;;;14.80;99.90;;;;;;5105371;27;19912;-58
2022/08/06 06:07:07;;;;;;;;;;;15.10;99.90;;;;;;5104024;27;19912;-58
2022/08/06 06:09:47;;;;;;;;;;;15.30;99.90;;;;;;5123979;27;19927;-58
2022/08/06 06:12:27;;;;;;;;;;;15.40;99.90;;;;;;5124559;27;19915;-58
2022/08/06 06:15:07;;;;;;;;;;;15.30;99.90;;;;;;5125544;27;19911;-58
2022/08/06 06:17:59;;;;;;;;;;;15.40;99.90;;;;;;5124350;27;19930;-57
2022/08/06 06:20:43;;;;;;;;;;;15.60;99.90;;;;;;5120051;27;19916;-58
2022/08/06 06:23:27;;;;;;;;;;;15.70;99.90;;;;;;5124767;27;19918;-58
2022/08/06 06:26:13;;;;;;;;;;;15.70;99.90;;;;;;5122479;27;19912;-58
2022/08/06 06:28:59;;;;;;;;;;;15.80;99.90;;;;;;5123853;27;20210;-58
2022/08/06 06:31:41;;;;;;;;;;;15.90;99.90;;;;;;5110133;27;20389;-58
2022/08/06 06:34:24;;;;;;;;;;;16.10;99.90;;;;;;5123210;27;20284;-58
2022/08/06 06:37:09;;;;;;;;;;;16.10;99.90;;;;;;5096287;27;19912;-58
2022/08/06 06:40:03;;;;;;;;;;;16.10;99.90;;;;;;5121757;27;19926;-58
2022/08/06 06:42:45;;;;;;;;;;;16.30;99.90;;;;;;5117304;27;19919;-60
2022/08/06 06:45:28;;;;;;;;;;;16.30;99.90;;;;;;5096468;27;19912;-58
2022/08/06 06:48:09;;;;;;;;;;;16.30;99.90;;;;;;5116835;27;19912;-58
2022/08/06 06:50:53;;;;;;;;;;;16.60;99.90;;;;;;5117085;27;19923;-58
2022/08/06 06:53:35;;;;;;;;;;;16.80;99.90;;;;;;5096605;27;20389;-58
2022/08/06 06:56:18;;;;;;;;;;;16.90;99.90;;;;;;5091508;27;19927;-58
2022/08/06 06:59:00;;;;;;;;;;;16.60;99.90;;;;;;5081986;28;19912;-58
2022/08/06 07:01:41;;;;;;;;;;;16.30;99.90;;;;;;5109338;27;19916;-58
2022/08/06 07:04:22;;;;;;;;;;;16.20;99.90;;;;;;5144702;27;19948;-57
2022/08/06 07:07:04;;;;;;;;;;;16.10;99.90;;;;;;5123197;27;20376;-58
2022/08/06 07:09:45;;;;;;;;;;;16.10;99.90;;;;;;5122930;27;19957;-58
2022/08/06 07:12:32;;;;;;;;;;;16.10;99.90;;;;;;5122723;27;19919;-57
2022/08/06 07:15:13;;;;;;;;;;;16.10;99.90;;;;;;5123574;27;20354;-58
2022/08/06 07:17:54;;;;;;;;;;;16.30;99.90;;;;;;5122548;27;19912;-58
2022/08/06 07:20:35;;;;;;;;;;;16.40;99.90;;;;;;5120073;27;20347;-57
2022/08/06 07:23:16;;;;;;;;;;;16.60;99.90;;;;;;5103249;27;19912;-58
2022/08/06 07:25:56;;;;;;;;;;;16.70;99.90;;;;;;5082498;28;20328;-58
2022/08/06 07:28:36;;;;;;;;;;;16.90;99.90;;;;;;5104520;27;20374;-58
2022/08/06 07:31:19;;;;;;;;;;;17.10;99.90;;;;;;5096065;27;19946;-58
2022/08/06 07:33:59;;;;;;;;;;;17.10;99.90;;;;;;5125837;27;20422;-58
2022/08/06 07:36:42;;;;;;;;;;;17.00;99.90;;;;;;5124891;27;19912;-58
2022/08/06 07:39:25;;;;;;;;;;;17.10;99.90;;;;;;5121777;27;19922;-58
2022/08/06 07:42:07;;;;;;;;;;;17.00;99.90;;;;;;5107860;27;20443;-58
2022/08/06 07:44:49;;;;;;;;;;;16.80;99.90;;;;;;5125252;27;20381;-58
2022/08/06 07:47:31;;;;;;;;;;;16.80;99.90;;;;;;5125369;27;19926;-58
2022/08/06 07:50:13;;;;;;;;;;;16.90;99.90;;;;;;5127012;27;20403;-58
2022/08/06 07:52:54;;;;;;;;;;;17.10;99.90;;;;;;5127399;27;19915;-58
2022/08/06 07:55:36;;;;;;;;;;;17.20;99.90;;;;;;5127195;27;19916;-58
2022/08/06 07:58:17;;;;;;;;;;;17.10;99.90;;;;;;5127738;27;19925;-58
2022/08/06 08:00:56;;;;;;;;;;;16.80;99.90;;;;;;5121207;27;19912;-58
2022/08/06 08:06:34;;;;;;;;;;;16.80;99.90;;;;;;5121167;27;20352;-57
2022/08/06 08:09:15;;;;;;;;;;;17.00;99.90;;;;;;5105885;27;20369;-58
2022/08/06 08:11:56;;;;;;;;;;;17.40;99.90;;;;;;5111582;27;19919;-58
2022/08/06 08:14:36;;;;;;;;;;;17.70;99.90;;;;;;5126832;27;20419;-58
2022/08/06 08:17:16;;;;;;;;;;;17.80;99.90;;;;;;5124691;27;20199;-58
2022/08/06 08:20:01;;;;;;;;;;;17.90;99.90;;;;;;5124844;27;19953;-57
2022/08/06 08:22:42;;;;;;;;;;;18.10;99.90;;;;;;5110438;27;19926;-58
2022/08/06 08:25:22;;;;;;;;;;;18.10;99.90;;;;;;5106235;27;19926;-58
2022/08/06 08:28:02;;;;;;;;;;;18.30;99.90;;;;;;5120009;27;19926;-57
2022/08/06 08:30:42;;;;;;;;;;;18.70;99.90;;;;;;5110723;27;20198;-58
2022/08/06 08:33:23;;;;;;;;;;;19.00;99.90;;;;;;5121709;27;19916;-58
2022/08/06 08:36:04;;;;;;;;;;;19.20;99.90;;;;;;5099857;27;20036;-58
2022/08/06 08:38:44;;;;;;;;;;;19.30;99.90;;;;;;5123587;27;20393;-57
2022/08/06 08:41:25;;;;;;;;;;;19.30;99.90;;;;;;5104728;27;19912;-58
2022/08/06 08:44:06;;;;;;;;;;;19.20;99.90;;;;;;5105743;27;19961;-58
2022/08/06 08:46:48;;;;;;;;;;;19.10;99.90;;;;;;5124673;27;19922;-60
2022/08/06 08:49:33;;;;;;;;;;;19.40;99.90;;;;;;5126142;27;19912;-58
2022/08/06 08:52:15;;;;;;;;;;;19.60;99.90;;;;;;5126924;27;19911;-58
2022/08/06 08:54:59;;;;;;;;;;;19.60;98.70;;;;;;5155474;27;19911;-58
2022/08/06 08:57:39;;;;;;;;;;;19.10;97.30;;;;;;5106437;27;20319;-59
2022/08/06 09:00:19;;;;;;;;;;;19.10;99.90;;;;;;5105665;27;19912;-58
2022/08/06 09:03:01;;;;;;;;;;;19.40;99.30;;;;;;5126968;27;19912;-58
2022/08/06 09:05:41;;;;;;;;;;;19.40;97.90;;;;;;5107082;27;19977;-58
2022/08/06 09:08:20;;;;;;;;;;;19.30;96.90;;;;;;5127048;27;20265;-58
2022/08/06 09:11:00;;;;;;;;;;;19.40;95.70;;;;;;5148061;27;19918;-58
2022/08/06 09:13:40;;;;;;;;;;;19.40;94.10;;;;;;5127155;27;19915;-58
2022/08/06 09:16:19;;;;;;;;;;;19.40;95.40;;;;;;5126816;27;19916;-58
2022/08/06 09:19:00;;;;;;;;;;;19.70;99.90;;;;;;5127242;27;19945;-58
2022/08/06 09:21:41;;;;;;;;;;;20.10;95.60;;;;;;5113778;27;20385;-58
2022/08/06 09:24:21;;;;;;;;;;;20.40;94.20;;;;;;5127243;27;19918;-58
2022/08/06 09:27:04;;;;;;;;;;;20.50;90.90;;;;;;5106906;27;19918;-58
2022/08/06 09:29:50;;;;;;;;;;;20.30;85.60;;;;;;5127552;27;20006;-58
2022/08/06 09:32:38;;;;;;;;;;;20.20;90.80;;;;;;5086899;28;20104;-58
2022/08/06 09:35:21;;;;;;;;;;;20.30;83.80;;;;;;5127313;27;19915;-60
2022/08/06 09:38:03;;;;;;;;;;;20.30;91.40;;;;;;5126685;27;19918;-58
2022/08/06 09:41:02;;;;;;;;;;;20.30;86.20;;;;;;5127363;27;19916;-59
2022/08/06 09:43:43;;;;;;;;;;;20.20;86.40;;;;;;5106876;27;20052;-58
2022/08/06 09:46:37;;;;;;;;;;;20.20;83.90;;;;;;5126936;27;19938;-58
2022/08/06 09:49:17;;;;;;;;;;;20.30;87.30;;;;;;5118737;27;19918;-58
2022/08/06 09:52:15;;;;;;;;;;;20.40;83.40;;;;;;5126942;27;20286;-58
2022/08/06 09:54:55;;;;;;;;;;;20.20;86.80;;;;;;5127308;27;19915;-58
2022/08/06 09:57:45;;;;;;;;;;;20.10;85.70;;;;;;5126533;27;19926;-58
2022/08/06 10:00:27;;;;;;;;;;;20.20;89.40;;;;;;5105063;27;19916;-58
2022/08/06 10:03:09;;;;;;;;;;;20.30;90.40;;;;;;5127299;27;19918;-58
2022/08/06 10:06:02;;;;;;;;;;;20.20;84.50;;;;;;5126860;27;20196;-59
2022/08/06 10:08:43;;;;;;;;;;;20.00;82.50;;;;;;5127302;27;19919;-59
2022/08/06 10:11:35;;;;;;;;;;;20.10;87.20;;;;;;5096373;27;19912;-59
2022/08/06 10:14:22;;;;;;;;;;;20.40;82.10;;;;;;5127419;27;19934;-58
2022/08/06 10:17:06;;;;;;;;;;;20.40;82.40;;;;;;5126975;27;19920;-58
2022/08/06 10:19:47;;;;;;;;;;;20.40;80.60;;;;;;5126986;27;19912;-59
2022/08/06 10:22:28;;;;;;;;;;;20.40;83.00;;;;;;5126649;27;19916;-58
2022/08/06 10:25:11;;;;;;;;;;;20.40;80.90;;;;;;5127285;27;20365;-58
2022/08/06 10:27:53;;;;;;;;;;;20.50;79.50;;;;;;5127057;27;19911;-59
2022/08/06 10:30:33;;;;;;;;;;;20.50;80.80;;;;;;5166990;27;19948;-59
2022/08/06 10:33:13;;;;;;;;;;;20.60;81.00;;;;;;5127012;27;19915;-59
2022/08/06 10:35:53;;;;;;;;;;;20.70;77.00;;;;;;5101355;27;20136;-58
2022/08/06 10:38:37;;;;;;;;;;;20.70;79.00;;;;;;5126114;27;19912;-59
2022/08/06 10:41:17;;;;;;;;;;;21.00;78.20;;;;;;5116094;27;19926;-59
2022/08/06 10:43:58;;;;;;;;;;;21.40;79.90;;;;;;5124593;27;19930;-58
2022/08/06 10:46:38;;;;;;;;;;;21.80;75.20;;;;;;5120007;27;20277;-58
2022/08/06 10:49:18;;;;;;;;;;;21.80;69.50;;;;;;5120475;27;19916;-58
2022/08/06 10:51:58;;;;;;;;;;;21.50;72.20;;;;;;5126405;27;19918;-58
2022/08/06 10:54:40;;;;;;;;;;;21.40;73.50;;;;;;5127157;27;19934;-58
2022/08/06 10:57:21;;;;;;;;;;;21.40;73.80;;;;;;5121826;27;19915;-58
2022/08/06 11:00:01;;;;;;;;;;;21.50;72.80;;;;;;5130242;27;19919;-59
2022/08/06 11:02:46;;;;;;;;;;;21.60;74.90;;;;;;5124559;27;20369;-58
2022/08/06 11:05:28;;;;;;;;;;;21.50;69.60;;;;;;5114726;27;19923;-58
2022/08/06 11:08:15;;;;;;;;;;;21.40;68.00;;;;;;5111991;27;19957;-58
2022/08/06 11:11:08;;;;;;;;;;;21.40;72.00;;;;;;5099810;27;20444;-58
2022/08/06 11:13:59;;;;;;;;;;;21.70;68.00;;;;;;5125905;27;19912;-60
2022/08/06 11:16:39;;;;;;;;;;;21.60;66.60;;;;;;5126259;27;20292;-59
2022/08/06 11:19:19;;;;;;;;;;;21.40;69.10;;;;;;5106362;27;20399;-58
2022/08/06 11:21:59;;;;;;;;;;;21.30;67.00;;;;;;5111785;27;19919;-58
2022/08/06 11:24:52;;;;;;;;;;;21.30;68.20;;;;;;5106107;27;19912;-58
2022/08/06 11:27:52;;;;;;;;;;;21.40;68.30;;;;;;5106376;27;20399;-59
2022/08/06 11:30:38;;;;;;;;;;;21.50;69.20;;;;;;5083222;28;19916;-59
2022/08/06 11:33:20;;;;;;;;;;;21.80;66.90;;;;;;5126935;27;19916;-58
2022/08/06 11:36:02;;;;;;;;;;;21.70;64.10;;;;;;5148425;27;19925;-59
2022/08/06 11:38:59;;;;;;;;;;;21.70;66.60;;;;;;5106703;27;19926;-58
2022/08/06 11:41:48;;;;;;;;;;;21.80;66.80;;;;;;5114726;27;19919;-58
2022/08/06 11:44:29;;;;;;;;;;;21.90;63.60;;;;;;5106318;27;19912;-58
2022/08/06 11:47:11;;;;;;;;;;;21.80;62.50;;;;;;5126814;27;19911;-59
2022/08/06 11:49:51;;;;;;;;;;;21.90;61.10;;;;;;5118689;27;19912;-58
2022/08/06 11:52:42;;;;;;;;;;;22.10;62.50;;;;;;5105919;27;20507;-59
2022/08/06 11:55:22;;;;;;;;;;;22.30;63.50;;;;;;5106451;27;19926;-61
2022/08/06 11:58:20;;;;;;;;;;;22.40;60.50;;;;;;5126641;27;20381;-60
2022/08/06 12:01:01;;;;;;;;;;;22.30;61.90;;;;;;5099899;27;19912;-58
2022/08/06 12:03:42;;;;;;;;;;;22.40;61.00;;;;;;5127237;27;19922;-58
2022/08/06 12:06:23;;;;;;;;;;;22.30;59.80;;;;;;5126597;27;20266;-59
2022/08/06 12:09:12;;;;;;;;;;;22.30;59.60;;;;;;5106717;27;19954;-58
2022/08/06 12:11:53;;;;;;;;;;;22.50;62.70;;;;;;5127128;27;20274;-58
2022/08/06 12:14:40;;;;;;;;;;;22.60;58.50;;;;;;5107276;27;20317;-58
2022/08/06 12:17:20;;;;;;;;;;;22.60;59.20;;;;;;5148199;27;19912;-58
2022/08/06 12:20:01;;;;;;;;;;;22.70;61.50;;;;;;5127080;27;19912;-58
2022/08/06 12:22:48;;;;;;;;;;;22.80;59.80;;;;;;5106311;27;20320;-58
2022/08/06 12:25:31;;;;;;;;;;;22.90;59.90;;;;;;5125322;27;19922;-59
2022/08/06 12:28:14;;;;;;;;;;;22.80;59.50;;;;;;5122261;27;19916;-58
2022/08/06 12:30:55;;;;;;;;;;;22.50;57.00;;;;;;5124594;27;19911;-59
2022/08/06 12:33:41;;;;;;;;;;;22.60;60.30;;;;;;5124924;27;19942;-59
2022/08/06 12:36:26;;;;;;;;;;;22.80;58.60;;;;;;5125007;27;19912;-58
2022/08/06 12:39:09;;;;;;;;;;;23.00;58.10;;;;;;5125356;27;19934;-58
2022/08/06 12:41:49;;;;;;;;;;;22.80;54.90;;;;;;5111560;27;19916;-58
2022/08/06 12:44:33;;;;;;;;;;;22.60;56.90;;;;;;5126101;27;19912;-61
2022/08/06 12:47:14;;;;;;;;;;;22.60;55.70;;;;;;5126698;27;20369;-58
2022/08/06 12:49:53;;;;;;;;;;;22.70;56.10;;;;;;5106388;27;19954;-57
2022/08/06 12:52:33;;;;;;;;;;;22.90;58.10;;;;;;5126499;27;19911;-58
2022/08/06 12:55:18;;;;;;;;;;;23.00;56.70;;;;;;5127235;27;19953;-59
2022/08/06 12:58:00;;;;;;;;;;;23.00;56.80;;;;;;5104715;27;19926;-59
2022/08/06 13:00:42;;;;;;;;;;;23.00;54.40;;;;;;5121113;27;20666;-59
2022/08/06 13:03:24;;;;;;;;;;;22.90;54.10;;;;;;5110678;27;19919;-59
2022/08/06 13:06:05;;;;;;;;;;;22.70;55.70;;;;;;5105295;27;19920;-59
2022/08/06 13:08:48;;;;;;;;;;;22.60;54.00;;;;;;5116153;27;19927;-59
2022/08/06 13:11:32;;;;;;;;;;;22.80;56.10;;;;;;5115337;27;19912;-60
2022/08/06 13:14:14;;;;;;;;;;;23.10;55.40;;;;;;5144862;27;20376;-59
2022/08/06 13:16:54;;;;;;;;;;;23.20;53.50;;;;;;5105589;27;19919;-59
2022/08/06 13:19:34;;;;;;;;;;;23.20;53.20;;;;;;5127111;27;19918;-59
2022/08/06 13:22:14;;;;;;;;;;;23.10;52.30;;;;;;5119410;27;20323;-59
2022/08/06 13:25:07;;;;;;;;;;;23.10;51.20;;;;;;5103973;27;20301;-58
2022/08/06 13:27:48;;;;;;;;;;;23.10;53.00;;;;;;5117133;27;19920;-58
2022/08/06 13:30:31;;;;;;;;;;;23.20;52.40;;;;;;5126717;27;19912;-59
2022/08/06 13:33:16;;;;;;;;;;;23.40;50.80;;;;;;5099303;27;19912;-59
2022/08/06 13:36:07;;;;;;;;;;;23.60;52.40;;;;;;5111749;27;19926;-60
2022/08/06 13:38:46;;;;;;;;;;;23.70;49.50;;;;;;5117355;27;19953;-58
2022/08/06 13:41:27;;;;;;;;;;;23.70;51.10;;;;;;5112885;27;19970;-59
2022/08/06 13:44:07;;;;;;;;;;;23.70;49.70;;;;;;5114107;27;19924;-59
2022/08/06 13:46:47;;;;;;;;;;;23.60;50.40;;;;;;5126340;27;19988;-59
2022/08/06 13:49:27;;;;;;;;;;;23.50;46.50;;;;;;5123744;27;19918;-59
2022/08/06 13:52:07;;;;;;;;;;;23.50;48.90;;;;;;5085489;28;20366;-59
2022/08/06 13:54:47;;;;;;;;;;;23.40;48.20;;;;;;5128296;27;19922;-60
2022/08/06 13:57:32;;;;;;;;;;;23.40;48.40;;;;;;5106186;27;19926;-62
2022/08/06 14:00:13;;;;;;;;;;;23.60;51.40;;;;;;5127285;27;20327;-58
2022/08/06 14:02:55;;;;;;;;;;;23.90;47.90;;;;;;5125648;27;19915;-58
2022/08/06 14:05:36;;;;;;;;;;;23.90;46.00;;;;;;5119872;27;19918;-59
2022/08/06 14:08:16;;;;;;;;;;;23.90;47.20;;;;;;5120674;27;19918;-58
2022/08/06 14:10:55;;;;;;;;;;;24.00;47.20;;;;;;5105642;27;19931;-58
2022/08/06 14:13:35;;;;;;;;;;;23.90;46.10;;;;;;5121632;27;19912;-60
2022/08/06 14:16:15;;;;;;;;;;;23.80;45.40;;;;;;5126001;27;19919;-58
2022/08/06 14:18:55;;;;;;;;;;;23.60;46.50;;;;;;5126227;27;20372;-58
2022/08/06 14:21:35;;;;;;;;;;;23.60;46.20;;;;;;5115130;27;19912;-58
2022/08/06 14:24:15;;;;;;;;;;;23.90;46.20;;;;;;5134865;27;19912;-58
2022/08/06 14:26:54;;;;;;;;;;;23.80;44.60;;;;;;5127203;27;19922;-58
2022/08/06 14:29:35;;;;;;;;;;;23.70;45.10;;;;;;5127008;27;19912;-60
2022/08/06 14:32:16;;;;;;;;;;;23.70;45.40;;;;;;5127145;27;19926;-58
2022/08/06 14:34:56;;;;;;;;;;;23.80;44.70;;;;;;5127158;27;19916;-59
2022/08/06 14:37:37;;;;;;;;;;;23.90;44.70;;;;;;5127066;27;20274;-58
2022/08/06 14:44:54;;;;;;;;;;;23.80;44.40;;;;;;5126336;27;19911;-61
2022/08/06 14:46:18;;;;;;;;;;;23.70;44.60;;;;;;5126412;27;19912;-58
2022/08/06 14:48:58;;;;;;;;;;;23.80;44.60;;;;;;5086315;28;19913;-58
2022/08/06 14:51:38;;;;;;;;;;;23.80;44.60;;;;;;5114705;27;19912;-60
2022/08/06 14:54:17;;;;;;;;;;;23.80;45.20;;;;;;5106879;27;19982;-60
2022/08/06 14:56:57;;;;;;;;;;;23.80;44.20;;;;;;5126632;27;19934;-58
2022/08/06 14:59:37;;;;;;;;;;;23.90;43.90;;;;;;5086167;28;19912;-58
2022/08/06 15:02:17;;;;;;;;;;;23.90;44.60;;;;;;5126517;27;19918;-58
2022/08/06 15:05:00;;;;;;;;;;;23.90;46.10;;;;;;5126960;27;20323;-58
2022/08/06 15:07:40;;;;;;;;;;;24.20;45.70;;;;;;5126832;27;19916;-60
2022/08/06 15:10:20;;;;;;;;;;;24.40;43.50;;;;;;5125964;27;19930;-58
2022/08/06 15:12:59;;;;;;;;;;;24.50;43.50;;;;;;5127533;27;19912;-58
2022/08/06 15:15:39;;;;;;;;;;;24.40;42.90;;;;;;5126779;27;19934;-58
2022/08/06 15:18:19;;;;;;;;;;;24.30;43.70;;;;;;5106478;27;20396;-59
2022/08/06 15:20:59;;;;;;;;;;;24.30;45.20;;;;;;5120639;27;20195;-58
2022/08/06 15:23:39;;;;;;;;;;;24.60;43.00;;;;;;5134541;27;19918;-59
2022/08/06 15:26:19;;;;;;;;;;;24.70;42.90;;;;;;5127192;27;19918;-61
2022/08/06 15:29:01;;;;;;;;;;;24.60;42.90;;;;;;5127170;27;19912;-59
2022/08/06 15:31:42;;;;;;;;;;;24.50;43.70;;;;;;5174459;22;19928;-55
2022/08/06 15:34:21;;;;;;;;;;;24.40;44.30;;;;;;5125207;27;19912;-56
2022/08/06 15:37:02;;;;;;;;;;;24.50;44.20;;;;;;5124739;27;20319;-58
2022/08/06 15:39:42;;;;;;;;;;;24.60;43.30;;;;;;5125220;27;19912;-59
2022/08/06 15:42:22;;;;;;;;;;;24.80;42.40;;;;;;5146086;27;19943;-56
2022/08/06 15:45:02;;;;;;;;;;;24.90;43.40;;;;;;5125413;27;19934;-56
2022/08/06 15:47:42;;;;;;;;;;;24.80;43.80;;;;;;5124185;27;20442;-56